createdAt,value
2019-05-16T00:04:37.963Z,95047
2019-05-16T00:09:34.327Z,95052.9
2019-05-16T00:14:31.376Z,95047.3
2019-05-16T00:19:28.741Z,95051.1
2019-05-16T00:24:24.796Z,95041.8
2019-05-16T00:29:22.156Z,95031
2019-05-16T00:34:18.913Z,95029.7
2019-05-16T00:39:15.618Z,95026.2
2019-05-16T00:44:12.972Z,95023.6
2019-05-16T00:49:09.265Z,95027.4
2019-05-16T00:54:08.065Z,95011.3
2019-05-16T00:59:03.064Z,95006.8
2019-05-16T01:03:59.921Z,95009.1
2019-05-16T01:08:57.934Z,95005.2
2019-05-16T01:13:52.749Z,95009
2019-05-16T01:18:50.196Z,94997.3
2019-05-16T01:23:48.177Z,95001.9
2019-05-16T01:28:43.892Z,94966.7
2019-05-16T01:33:40.971Z,95002.9
2019-05-16T01:38:38.964Z,94935
2019-05-16T01:43:34.639Z,95044.7
2019-05-16T01:48:31.200Z,94907.6
2019-05-16T01:53:28.009Z,94917.7
2019-05-16T01:58:24.747Z,94977.6
2019-05-16T02:03:21.779Z,94993.9
2019-05-16T02:08:18.980Z,94909.9
2019-05-16T02:13:17.730Z,95001.8
2019-05-16T02:18:12.265Z,94993.6
2019-05-16T02:23:08.518Z,94989
2019-05-16T02:28:05.247Z,94988
2019-05-16T02:33:02.495Z,94985
2019-05-16T02:38:00.914Z,94984
2019-05-16T02:42:56.718Z,94921.2
2019-05-16T02:47:53.280Z,94985.6
2019-05-16T02:52:51.646Z,94980
2019-05-16T02:57:47.282Z,94997.2
2019-05-16T03:02:44.299Z,94984.3
2019-05-16T03:07:46.483Z,94985.7
2019-05-16T03:12:40.838Z,94990.6
2019-05-16T03:17:35.203Z,94993.5
2019-05-16T03:22:31.980Z,94994
2019-05-16T03:27:30.509Z,94995.8
2019-05-16T03:32:26.047Z,94990.7
2019-05-16T03:37:24.765Z,94986.3
2019-05-16T03:42:20.546Z,94949
2019-05-16T03:47:16.923Z,94992
2019-05-16T03:52:13.807Z,95000.5
2019-05-16T03:57:11.617Z,94994.3
2019-05-16T04:02:04.806Z,94991.5
2019-05-16T04:07:01.766Z,95000.9
2019-05-16T04:12:01.738Z,94997.2
2019-05-16T04:16:55.357Z,94905.8
2019-05-16T04:21:52.438Z,94919.5
2019-05-16T04:26:51.604Z,94946.1
2019-05-16T04:31:45.449Z,94916
2019-05-16T04:36:42.134Z,94990.7
2019-05-16T04:41:40.883Z,94919.5
2019-05-16T04:46:35.538Z,94942.7
2019-05-16T04:51:32.921Z,94963.7
2019-05-16T04:56:30.901Z,94971.3
2019-05-16T05:01:30.630Z,94993.6
2019-05-16T05:06:25.508Z,94997.4
2019-05-16T05:11:21.870Z,94925
2019-05-16T05:16:20.239Z,95005.4
2019-05-16T05:21:15.290Z,94929
2019-05-16T05:26:12.210Z,95002.5
2019-05-16T05:31:10.771Z,94979.8
2019-05-16T05:36:05.366Z,95002.7
2019-05-16T05:41:02.401Z,94905.6
2019-05-16T05:46:00.619Z,95010.9
2019-05-16T05:50:56.476Z,94935.7
2019-05-16T05:55:52.955Z,95009.2
2019-05-16T06:00:51.648Z,95008.7
2019-05-16T06:05:46.826Z,95006
2019-05-16T06:10:43.618Z,95003.3
2019-05-16T06:15:40.815Z,95004.1
2019-05-16T06:20:39.975Z,95003.2
2019-05-16T06:25:33.810Z,95000
2019-05-16T06:30:30.913Z,95003.1
2019-05-16T06:35:29.876Z,95014.1
2019-05-16T06:40:24.929Z,95011.5
2019-05-16T06:45:21.790Z,94938
2019-05-16T06:50:20.785Z,94946.2
2019-05-16T06:55:16.208Z,95006.7
2019-05-16T07:00:13.107Z,95008.4
2019-05-16T07:05:10.085Z,95005.5
2019-05-16T07:10:06.880Z,95006.3
2019-05-16T07:15:03.894Z,95006.1
2019-05-16T07:20:00.831Z,94997.9
2019-05-16T07:24:56.684Z,94989.9
2019-05-16T07:29:54.116Z,94908.4
2019-05-16T07:34:51.026Z,94979.5
2019-05-16T07:39:50.561Z,94983
2019-05-16T07:44:45.007Z,94985.9
2019-05-16T07:49:42.355Z,94982.2
2019-05-16T07:54:40.330Z,94975.8
2019-05-16T07:59:36.076Z,94943.2
2019-05-16T08:04:33.040Z,94966.9
2019-05-16T08:09:30.694Z,94969.9
2019-05-16T08:14:26.927Z,94975.3
2019-05-16T08:19:25.251Z,94970.7
2019-05-16T08:24:21.436Z,94971.6
2019-05-16T08:29:21.783Z,94971.2
2019-05-16T08:34:15.364Z,94955.3
2019-05-16T08:39:12.107Z,94961.8
2019-05-16T08:44:12.242Z,94888.3
2019-05-16T08:49:06.512Z,94549.2
2019-05-16T08:54:03.463Z,94965.6
2019-05-16T08:59:02.377Z,94966.9
2019-05-16T09:04:01.147Z,94903.4
2019-05-16T09:08:58.366Z,94899.4
2019-05-16T09:13:51.941Z,94959.8
2019-05-16T09:18:50.808Z,94836.5
2019-05-16T09:23:47.005Z,94949
2019-05-16T09:28:43.797Z,94944.8
2019-05-16T09:33:40.715Z,94938.6
2019-05-16T09:38:38.588Z,94908.1
2019-05-16T09:43:38.504Z,94937.4
2019-05-16T09:48:32.226Z,94941.1
2019-05-16T09:53:29.821Z,94828.8
2019-05-16T09:58:27.751Z,94931.9
2019-05-16T10:03:23.994Z,94924.9
2019-05-16T10:08:21.152Z,94924
2019-05-16T10:13:18.370Z,94912
2019-05-16T10:18:16.820Z,94912.2
2019-05-16T10:23:14.493Z,94909.6
2019-05-16T10:28:09.554Z,94851.1
2019-05-16T10:33:07.018Z,94742.1
2019-05-16T10:38:03.710Z,94895.9
2019-05-16T10:43:00.868Z,94897
2019-05-16T10:47:57.199Z,94890.8
2019-05-16T10:53:13.611Z,94862.3
2019-05-16T10:57:50.935Z,94886.6
2019-05-16T11:02:47.982Z,94929
2019-05-16T11:07:47.742Z,94884
2019-05-16T11:12:49.792Z,94883.9
2019-05-16T11:17:39.298Z,94891.6
2019-05-16T11:22:37.106Z,94888.3
2019-05-16T11:27:33.363Z,94903.5
2019-05-16T11:32:29.926Z,94915.3
2019-05-16T11:37:27.881Z,94903.8
2019-05-16T11:42:23.928Z,94914.9
2019-05-16T11:47:20.852Z,94927.3
2019-05-16T11:52:18.109Z,94969.1
2019-05-16T11:57:14.365Z,94963.4
2019-05-16T12:02:11.086Z,94962.7
2019-05-16T12:07:07.942Z,94968.6
2019-05-16T12:12:05.005Z,94901.3
2019-05-16T12:17:02.106Z,94970.3
2019-05-16T12:21:59.684Z,94893
2019-05-16T12:26:57.454Z,94960.7
2019-05-16T12:31:59.508Z,94874.4
2019-05-16T12:36:50.860Z,94921.8
2019-05-16T12:41:49.054Z,94914.1
2019-05-16T12:46:47.341Z,94901.8
2019-05-16T12:51:43.862Z,94868.4
2019-05-16T12:56:41.082Z,94822.7
2019-05-16T13:01:38.724Z,94822.4
2019-05-16T13:06:37.062Z,94895.9
2019-05-16T13:11:32.696Z,94908.8
2019-05-16T13:16:29.785Z,94917.3
2019-05-16T13:21:27.480Z,94932.5
2019-05-16T13:26:23.768Z,94870.8
2019-05-16T13:31:20.746Z,94953.6
2019-05-16T13:36:17.736Z,94960.8
2019-05-16T13:41:17.986Z,94883.9
2019-05-16T13:46:08.828Z,94930.3
2019-05-16T13:51:14.560Z,94955.7
2019-05-16T13:56:06.245Z,94943.9
2019-05-16T14:01:00.008Z,94954.5
2019-05-16T14:05:58.159Z,94955.2
2019-05-16T14:11:00.648Z,94953.4
2019-05-16T14:15:51.832Z,94844.7
2019-05-16T14:20:49.088Z,94876.5
2019-05-16T14:25:47.938Z,94949.8
2019-05-16T14:30:42.658Z,94953.6
2019-05-16T14:35:40.047Z,94890.1
2019-05-16T14:40:37.632Z,94897.9
2019-05-16T14:45:36.989Z,94894.8
2019-05-16T14:50:32.362Z,94900.6
2019-05-16T14:55:29.634Z,94962.3
2019-05-16T15:00:27.922Z,94959.8
2019-05-16T15:05:24.258Z,94969.3
2019-05-16T15:10:21.878Z,94898
2019-05-16T15:15:23.974Z,94952.5
2019-05-16T15:20:18.166Z,94950.3
2019-05-16T15:25:13.431Z,94927.1
2019-05-16T15:30:10.578Z,94960.5
2019-05-16T15:35:07.794Z,94964.1
2019-05-16T15:40:07.028Z,94953
2019-05-16T15:45:01.933Z,94941.5
2019-05-16T15:49:59.746Z,94847
2019-05-16T15:54:55.799Z,94923.5
2019-05-16T15:59:52.149Z,94909.9
2019-05-16T16:04:48.915Z,94915.3
2019-05-16T16:09:46.995Z,94922.3
2019-05-16T16:14:43.341Z,94853.9
2019-05-16T16:19:39.771Z,94843.3
2019-05-16T16:24:36.631Z,94941.9
2019-05-16T16:29:36.588Z,94843
2019-05-16T16:34:31.342Z,94937.4
2019-05-16T16:39:28.919Z,94878.3
2019-05-16T16:44:27.440Z,94954
2019-05-16T16:49:22.025Z,94937.5
2019-05-16T16:54:18.609Z,94936.8
2019-05-16T16:59:17.225Z,94973.9
2019-05-16T17:04:12.937Z,94973.5
2019-05-16T17:09:10.296Z,94973.9
2019-05-16T17:14:07.415Z,94983.6
2019-05-16T17:19:04.105Z,94984.1
2019-05-16T17:24:00.994Z,94988.1
2019-05-16T17:28:58.070Z,94962.1
2019-05-16T17:33:57.684Z,95000.2
2019-05-16T17:38:51.924Z,95012.3
2019-05-16T17:43:49.513Z,95027.1
2019-05-16T17:48:46.768Z,95029
2019-05-16T17:53:43.291Z,94975.8
2019-05-16T17:58:40.237Z,95049.8
2019-05-16T18:03:37.511Z,94974.9
2019-05-16T18:08:34.168Z,95049.1
2019-05-16T18:13:31.522Z,95058.3
2019-05-16T18:18:27.825Z,95056.3
2019-05-16T18:23:27.272Z,95004.2
2019-05-16T18:28:22.307Z,95071.8
2019-05-16T18:33:19.023Z,95080.6
2019-05-16T18:38:16.270Z,95081.8
2019-05-16T18:43:13.207Z,95081.2
2019-05-16T18:48:10.093Z,95083.2
2019-05-16T18:53:07.410Z,95094.8
2019-05-16T18:58:08.007Z,95005.2
2019-05-16T19:03:01.809Z,95088.1
2019-05-16T19:07:58.638Z,95089.8
2019-05-16T19:12:56.465Z,95088.7
2019-05-16T19:17:52.668Z,95095.1
2019-05-16T19:22:49.551Z,95100.5
2019-05-16T19:27:47.060Z,95101.7
2019-05-16T19:32:46.687Z,95098.6
2019-05-16T19:37:41.006Z,95096
2019-05-16T19:42:38.336Z,95098.3
2019-05-16T19:47:40.304Z,95103.8
2019-05-16T19:52:31.988Z,95099.3
2019-05-16T19:57:29.460Z,95095.9
2019-05-16T20:02:27.293Z,95099.5
2019-05-16T20:07:23.465Z,95098.3
2019-05-16T20:12:20.315Z,95099.8
2019-05-16T20:17:19.143Z,95094.1
2019-05-16T20:22:13.994Z,95093.1
2019-05-16T20:27:10.917Z,95014
2019-05-16T20:32:09.820Z,95086.2
2019-05-16T20:37:06.072Z,95027.4
2019-05-16T20:42:02.341Z,95096
2019-05-16T20:46:59.376Z,95100.7
2019-05-16T20:51:57.771Z,95102
2019-05-16T20:56:53.735Z,95108.7
2019-05-16T21:01:50.634Z,95108.1
2019-05-16T21:06:57.395Z,95106.5
2019-05-16T21:11:46.792Z,95102.6
2019-05-16T21:16:41.822Z,94940.5
2019-05-16T21:21:38.916Z,95038.2
2019-05-16T21:26:36.760Z,95069.4
2019-05-16T21:31:33.456Z,95113.7
2019-05-16T21:36:30.693Z,95112.7
2019-05-16T21:41:27.257Z,95045.4
2019-05-16T21:46:26.978Z,95183.9
2019-05-16T21:51:21.379Z,95027.1
2019-05-16T21:56:18.158Z,95132.8
2019-05-16T22:01:15.283Z,95127.1
2019-05-16T22:06:12.163Z,95067.2
2019-05-16T22:11:09.066Z,95062
2019-05-16T22:16:08.020Z,95051.6
2019-05-16T22:21:02.835Z,95049.5
2019-05-16T22:26:00.406Z,95184
2019-05-16T22:30:58.461Z,95047.7
2019-05-16T22:35:53.678Z,95046
2019-05-16T22:40:50.619Z,95048.8
2019-05-16T22:45:47.854Z,95048.5
2019-05-16T22:50:44.771Z,95042.2
2019-05-16T22:55:41.412Z,95031.4
2019-05-16T23:00:41.250Z,95026.7
2019-05-16T23:05:36.814Z,95027.7
2019-05-16T23:10:32.439Z,95024.5
2019-05-16T23:15:29.300Z,95020.6
2019-05-16T23:20:27.710Z,95030
2019-05-16T23:25:23.456Z,95100.7
2019-05-16T23:30:20.162Z,95024.9
2019-05-16T23:35:17.283Z,95022.8
2019-05-16T23:40:13.976Z,95020.9
2019-05-16T23:45:11.177Z,95013.3
2019-05-16T23:50:08.108Z,95007.8
2019-05-16T23:55:07.858Z,95090
